Time;durP1;ratioP1;P1;durP2;ratioP2;P2;SDS_P1;SDS_P2;PMS_P1;PMS_P2;Temp;Humidity;BMP_temperature;BMP_pressure;BME280_temperature;BME280_humidity;BME280_pressure;Samples;Min_cycle;Max_cycle;Signal;HPM_P1;HPM_P2
2023/07/24 00:00:29;;;;;;;3.60;2.60;;;;;;;15.68;71.70;98724.23;105459;1256;61113;-23
2023/07/24 00:02:56;;;;;;;5.10;2.60;;;;;;;15.40;72.68;98727.20;105428;1260;61863;-23
2023/07/24 00:05:23;;;;;;;4.60;2.80;;;;;;;15.18;73.13;98727.06;105417;1258;73772;-23
2023/07/24 00:07:50;;;;;;;5.70;2.60;;;;;;;15.01;74.01;98725.67;105572;1261;74176;-23
2023/07/24 00:10:17;;;;;;;5.30;2.10;;;;;;;14.89;74.68;98726.95;105476;1256;72356;-23
2023/07/24 00:12:44;;;;;;;3.40;2.00;;;;;;;15.32;73.57;98721.59;105387;1257;61539;-23
2023/07/24 00:15:11;;;;;;;2.40;2.00;;;;;;;15.69;72.24;98719.64;105354;1258;61147;-23
2023/07/24 00:17:38;;;;;;;2.20;1.90;;;;;;;15.74;71.67;98716.74;105642;1260;73847;-23
2023/07/24 00:20:06;;;;;;;2.80;2.40;;;;;;;15.57;72.25;98715.64;105608;1258;74377;-23
2023/07/24 00:22:34;;;;;;;5.60;2.60;;;;;;;15.45;72.00;98714.48;105319;1258;71179;-23
2023/07/24 00:25:00;;;;;;;6.80;2.50;;;;;;;15.26;72.59;98715.44;105575;1256;61160;-23
2023/07/24 00:27:27;;;;;;;6.50;2.70;;;;;;;15.08;73.34;98716.80;105476;1261;61170;-23
2023/07/24 00:29:54;;;;;;;5.60;2.00;;;;;;;14.90;74.23;98715.83;105509;1256;73822;-24
2023/07/24 00:32:21;;;;;;;5.20;2.80;;;;;;;15.29;73.56;98713.75;105463;1260;74175;-23
2023/07/24 00:34:48;;;;;;;3.10;2.20;;;;;;;15.76;71.97;98708.86;105126;1258;72737;-23
2023/07/24 00:37:18;;;;;;;4.10;2.40;;;;;;;15.84;71.22;98705.75;105245;1256;61062;-23
2023/07/24 00:39:46;;;;;;;4.60;2.80;;;;;;;15.65;71.58;98705.73;105257;1258;61138;-23
2023/07/24 00:42:13;;;;;;;5.10;2.80;;;;;;;15.42;71.72;98702.86;105551;1258;74406;-22
2023/07/24 00:44:40;;;;;;;5.70;2.80;;;;;;;15.20;72.47;98707.66;105613;1260;74326;-23
2023/07/24 00:47:06;;;;;;;3.90;3.10;;;;;;;14.96;73.10;98704.00;105556;1258;72920;-22
2023/07/24 00:49:33;;;;;;;10.40;3.20;;;;;;;14.79;74.04;98701.25;105557;1260;61200;-22
2023/07/24 00:52:00;;;;;;;3.50;2.20;;;;;;;14.70;74.22;98699.71;105606;1256;61141;-22
2023/07/24 00:54:27;;;;;;;5.20;2.50;;;;;;;15.17;74.23;98696.40;105588;1257;74374;-22
2023/07/24 00:56:54;;;;;;;2.10;1.70;;;;;;;15.72;72.55;98687.94;105613;1257;74327;-22
2023/07/24 00:59:21;;;;;;;9.50;2.70;;;;;;;15.82;71.62;98687.01;105505;1256;72384;-23
2023/07/24 01:01:48;;;;;;;6.80;2.30;;;;;;;15.67;71.78;98692.35;105425;1257;61135;-23
2023/07/24 01:04:14;;;;;;;5.70;2.90;;;;;;;15.45;72.38;98691.69;105607;1261;61161;-23
2023/07/24 01:06:41;;;;;;;5.70;3.00;;;;;;;15.23;72.53;98692.35;105414;1257;73902;-23
2023/07/24 01:09:08;;;;;;;4.60;3.00;;;;;;;15.02;73.12;98690.17;105253;1257;74890;-23
2023/07/24 01:12:10;;;;;;;5.10;3.20;;;;;;;14.81;73.16;98693.88;105295;1257;73207;-23
2023/07/24 01:14:50;;;;;;;2.80;2.10;;;;;;;14.67;74.10;98688.85;105144;1257;62023;-23
2023/07/24 01:17:19;;;;;;;4.80;2.30;;;;;;;15.33;73.23;98681.98;105183;1259;61161;-23
2023/07/24 01:19:48;;;;;;;3.50;2.70;;;;;;;15.76;71.93;98679.11;105246;1257;75202;-23
2023/07/24 01:22:32;;;;;;;3.50;2.70;;;;;;;15.75;71.45;98675.70;105419;1263;73730;-23
2023/07/24 01:25:21;;;;;;;4.20;2.80;;;;;;;15.49;71.78;98675.58;105119;1257;72522;-23
2023/07/24 01:27:48;;;;;;;4.80;3.60;;;;;;;15.22;72.51;98678.06;105279;1256;61160;-23
2023/07/24 01:30:19;;;;;;;4.10;3.10;;;;;;;15.00;73.34;98678.11;105385;1261;61160;-23
2023/07/24 01:32:47;;;;;;;3.70;3.00;;;;;;;14.80;73.92;98678.64;105243;1257;72627;-23
2023/07/24 01:35:16;;;;;;;3.30;2.30;;;;;;;14.66;75.11;98678.33;105575;1260;73264;-23
2023/07/24 01:37:43;;;;;;;5.50;2.60;;;;;;;15.10;74.94;98673.06;105538;1257;72779;-23
2023/07/24 01:40:10;;;;;;;4.10;2.80;;;;;;;15.61;73.51;98666.16;105508;1256;61059;-23
2023/07/24 01:42:37;;;;;;;6.30;3.00;;;;;;;15.66;72.40;98668.27;105308;1256;61027;-23
2023/07/24 01:45:05;;;;;;;4.90;3.10;;;;;;;15.50;72.48;98671.05;105153;1256;73841;-23
2023/07/24 01:47:32;;;;;;;3.70;2.90;;;;;;;15.27;72.62;98669.53;105430;1257;74254;-23
2023/07/24 01:49:59;;;;;;;5.50;3.20;;;;;;;15.06;73.32;98671.08;105338;1257;73334;-23
2023/07/24 01:52:26;;;;;;;5.50;3.40;;;;;;;14.84;74.56;98668.80;105416;1256;61260;-23
2023/07/24 01:54:53;;;;;;;5.50;3.50;;;;;;;14.66;74.62;98667.59;105214;1260;61103;-23
2023/07/24 01:57:20;;;;;;;5.20;2.40;;;;;;;14.54;76.07;98666.09;105464;1258;73872;-23
2023/07/24 01:59:48;;;;;;;5.30;2.70;;;;;;;15.02;75.27;98658.45;105220;1257;74359;-23
2023/07/24 02:02:15;;;;;;;6.70;3.00;;;;;;;15.55;73.23;98652.02;105219;1260;72549;-23
2023/07/24 02:04:42;;;;;;;5.70;2.60;;;;;;;15.61;72.70;98650.63;105542;1256;61066;-23
2023/07/24 02:07:09;;;;;;;4.20;2.90;;;;;;;15.43;72.55;98647.44;105171;1261;61173;-23
2023/07/24 02:09:36;;;;;;;8.60;3.60;;;;;;;15.13;73.69;98653.13;105316;1256;73792;-22
2023/07/24 02:12:03;;;;;;;8.30;3.70;;;;;;;14.94;74.59;98651.80;105432;1257;74278;-23
2023/07/24 02:14:30;;;;;;;5.70;3.70;;;;;;;14.82;75.22;98656.79;105196;1257;72957;-23
2023/07/24 02:16:57;;;;;;;3.30;2.20;;;;;;;14.66;75.83;98656.10;105256;1260;61879;-23
2023/07/24 02:19:24;;;;;;;4.80;2.50;;;;;;;15.08;74.93;98653.14;105488;1258;61173;-22
2023/07/24 02:21:51;;;;;;;8.70;3.10;;;;;;;15.56;73.56;98647.33;105564;1256;73898;-22
2023/07/24 02:24:18;;;;;;;6.50;2.80;;;;;;;15.63;72.55;98647.77;105543;1256;74171;-23
2023/07/24 02:26:45;;;;;;;4.00;2.70;;;;;;;15.48;73.47;98649.21;105551;1257;72620;-22
2023/07/24 02:29:12;;;;;;;4.60;3.30;;;;;;;15.31;73.75;98651.35;105464;1256;61150;-23
2023/07/24 02:31:38;;;;;;;6.80;3.30;;;;;;;15.10;74.13;98652.74;105600;1261;61094;-23
2023/07/24 02:34:05;;;;;;;6.40;3.50;;;;;;;14.86;75.18;98653.92;105577;1257;74374;-23
2023/07/24 02:36:32;;;;;;;4.70;2.40;;;;;;;14.68;76.14;98654.10;105340;1259;74414;-22
2023/07/24 02:38:59;;;;;;;5.20;2.80;;;;;;;15.06;75.29;98651.30;105424;1256;72036;-22
2023/07/24 02:41:26;;;;;;;5.00;3.10;;;;;;;15.37;74.03;98650.44;105375;1256;61215;-23
2023/07/24 02:43:52;;;;;;;6.00;2.90;;;;;;;15.43;73.53;98650.02;105295;1261;61123;-23
2023/07/24 02:46:19;;;;;;;4.50;3.00;;;;;;;15.32;73.65;98650.45;105435;1257;74239;-22
2023/07/24 02:48:46;;;;;;;4.20;3.10;;;;;;;15.17;74.21;98650.12;105260;1257;74436;-22
2023/07/24 02:51:13;;;;;;;4.70;3.30;;;;;;;15.01;75.04;98654.06;105203;1260;72628;-22
2023/07/24 02:53:40;;;;;;;2.70;2.10;;;;;;;14.93;75.75;98650.59;105362;1256;61700;-22
2023/07/24 02:56:07;;;;;;;6.60;3.20;;;;;;;15.39;75.06;98638.85;105291;1257;61174;-22
2023/07/24 02:58:34;;;;;;;5.80;2.90;;;;;;;15.93;72.86;98634.41;105362;1256;73827;-22
2023/07/24 03:01:06;;;;;;;5.00;3.10;;;;;;;16.02;71.93;98634.68;105600;1257;74220;-22
2023/07/24 03:03:33;;;;;;;5.60;3.90;;;;;;;15.89;72.43;98634.33;105223;1263;72562;-22
2023/07/24 03:06:01;;;;;;;6.50;3.50;;;;;;;15.76;72.99;98632.09;105585;1256;61042;-22
2023/07/24 03:08:28;;;;;;;6.40;3.60;;;;;;;15.64;72.89;98628.61;105221;1257;61174;-22
2023/07/24 03:10:56;;;;;;;8.10;3.50;;;;;;;15.49;73.65;98628.14;105389;1257;74362;-22
2023/07/24 03:13:22;;;;;;;8.30;3.00;;;;;;;15.35;74.90;98626.15;105462;1256;74430;-22
2023/07/24 03:15:53;;;;;;;3.70;2.70;;;;;;;15.80;74.68;98625.88;105390;1264;72661;-22
2023/07/24 03:18:20;;;;;;;5.00;2.80;;;;;;;16.33;72.01;98624.77;105212;1264;61185;-23
2023/07/24 03:20:47;;;;;;;4.30;2.80;;;;;;;16.37;71.56;98625.79;105294;1261;61969;-23
2023/07/24 03:23:14;;;;;;;4.20;2.80;;;;;;;16.23;71.37;98623.63;105561;1256;73747;-22
2023/07/24 03:25:41;;;;;;;6.00;3.40;;;;;;;16.04;71.79;98613.92;105408;1256;74905;-23
2023/07/24 03:28:08;;;;;;;4.60;3.40;;;;;;;15.81;72.74;98622.01;105397;1257;72763;-22
2023/07/24 03:30:35;;;;;;;6.10;3.70;;;;;;;15.54;73.71;98620.35;105470;1256;61171;-22
2023/07/24 03:33:02;;;;;;;5.20;2.20;;;;;;;15.43;74.61;98622.85;105422;1260;61231;-22
2023/07/24 03:35:30;;;;;;;6.10;2.30;;;;;;;15.84;73.74;98617.73;105534;1256;73525;-23
2023/07/24 03:37:58;;;;;;;4.70;3.00;;;;;;;16.22;72.25;98615.81;105163;1257;74332;-22
2023/07/24 03:40:26;;;;;;;4.70;2.80;;;;;;;16.24;71.91;98617.95;105396;1257;71384;-22
2023/07/24 03:42:52;;;;;;;4.00;2.90;;;;;;;16.13;72.07;98614.02;105452;1261;61190;-22
2023/07/24 03:45:19;;;;;;;5.30;3.20;;;;;;;15.81;73.10;98621.15;105196;1258;61743;-22
2023/07/24 03:47:46;;;;;;;7.60;3.40;;;;;;;15.60;74.00;98621.17;105593;1256;73268;-22
2023/07/24 03:50:21;;;;;;;5.20;3.30;;;;;;;15.44;74.86;98623.93;105482;1256;74384;-23
2023/07/24 03:52:47;;;;;;;4.80;2.50;;;;;;;15.47;75.35;98622.06;105580;1256;73093;-22
2023/07/24 03:55:14;;;;;;;5.40;3.00;;;;;;;16.05;73.85;98624.20;105593;1256;61029;-22
2023/07/24 03:57:41;;;;;;;4.60;2.80;;;;;;;16.56;71.90;98622.21;105268;1260;61112;-23
2023/07/24 04:00:09;;;;;;;5.10;2.90;;;;;;;16.55;71.01;98621.96;105255;1255;73556;-22
2023/07/24 04:02:39;;;;;;;8.00;3.20;;;;;;;16.56;71.32;98621.17;105479;1257;74168;-22
2023/07/24 04:05:06;;;;;;;6.60;3.50;;;;;;;16.59;71.35;98623.33;105564;1257;72776;-22
2023/07/24 04:07:33;;;;;;;6.30;3.90;;;;;;;16.57;71.45;98625.63;105432;1258;61150;-22
2023/07/24 04:10:00;;;;;;;5.50;3.30;;;;;;;16.59;71.30;98625.52;105221;1257;61129;-22
2023/07/24 04:12:28;;;;;;;5.10;2.20;;;;;;;16.50;72.13;98629.30;105531;1260;73836;-22
2023/07/24 04:14:56;;;;;;;5.20;2.60;;;;;;;16.99;71.63;98631.05;105271;1260;73238;-23
2023/07/24 04:17:23;;;;;;;4.50;2.90;;;;;;;17.19;69.71;98628.94;105261;1256;72333;-23
2023/07/24 04:19:50;;;;;;;5.00;3.60;;;;;;;17.13;69.81;98623.17;105344;1256;61144;-22
2023/07/24 04:22:17;;;;;;;5.30;3.10;;;;;;;17.29;69.52;98626.38;105441;1258;61211;-23
2023/07/24 04:24:44;;;;;;;4.10;3.30;;;;;;;17.37;69.55;98619.85;105610;1256;73843;-22
2023/07/24 04:27:11;;;;;;;6.00;3.60;;;;;;;17.17;69.67;98620.57;105594;1257;74365;-22
2023/07/24 04:29:37;;;;;;;4.80;3.30;;;;;;;17.15;70.29;98624.10;105545;1256;72525;-23
2023/07/24 04:32:05;;;;;;;6.30;2.70;;;;;;;17.32;70.16;98625.25;105209;1256;61173;-22
2023/07/24 04:34:33;;;;;;;3.80;2.80;;;;;;;17.72;69.35;98621.52;105405;1263;62391;-22
2023/07/24 04:37:00;;;;;;;7.80;3.10;;;;;;;18.28;67.91;98620.44;105325;1256;73705;-22
2023/07/24 04:39:27;;;;;;;14.00;3.80;;;;;;;18.40;66.77;98617.21;105627;1256;74784;-23
2023/07/24 04:41:53;;;;;;;5.80;3.90;;;;;;;18.33;67.13;98617.92;105581;1261;73084;-22
2023/07/24 04:44:20;;;;;;;7.80;3.60;;;;;;;18.33;67.00;98614.99;105465;1256;61192;-22
2023/07/24 04:46:47;;;;;;;5.30;3.90;;;;;;;18.27;67.09;98611.80;105456;1258;61110;-22
2023/07/24 04:49:14;;;;;;;8.90;4.40;;;;;;;18.16;67.31;98605.88;105299;1256;73803;-22
2023/07/24 04:51:41;;;;;;;15.70;4.20;;;;;;;18.23;67.47;98604.66;105581;1260;74295;-22
2023/07/24 04:54:08;;;;;;;10.20;3.90;;;;;;;18.30;67.00;98606.11;105546;1257;72832;-22
2023/07/24 04:56:36;;;;;;;8.30;3.80;;;;;;;18.37;66.93;98607.08;105496;1256;61147;-23
2023/07/24 04:59:02;;;;;;;5.60;4.20;;;;;;;18.31;66.65;98603.17;105308;1260;61257;-23
2023/07/24 05:01:29;;;;;;;5.20;3.50;;;;;;;18.46;66.95;98603.98;105489;1256;73902;-22
2023/07/24 05:03:56;;;;;;;7.00;3.80;;;;;;;18.60;65.93;98600.02;105566;1257;73403;-22
2023/07/24 05:06:23;;;;;;;7.30;3.60;;;;;;;19.18;64.82;98603.20;105594;1257;72543;-22
2023/07/24 05:08:52;;;;;;;5.30;3.60;;;;;;;19.57;63.77;98596.72;105610;1256;61098;-22
2023/07/24 05:11:19;;;;;;;5.20;3.70;;;;;;;19.50;63.35;98598.13;105484;1263;61136;-22
2023/07/24 05:13:46;;;;;;;7.70;3.80;;;;;;;19.54;63.21;98598.98;105607;1257;73819;-22
2023/07/24 05:16:13;;;;;;;8.00;4.00;;;;;;;19.49;63.01;98597.07;105213;1257;74340;-22
2023/07/24 05:18:40;;;;;;;5.20;3.70;;;;;;;19.52;63.65;98592.70;105221;1256;73056;-22
2023/07/24 05:21:07;;;;;;;4.60;3.50;;;;;;;19.57;63.30;98593.21;105259;1256;61203;-22
2023/07/24 05:23:34;;;;;;;9.00;3.70;;;;;;;19.65;63.60;98591.30;105457;1257;61103;-23
2023/07/24 05:26:02;;;;;;;6.70;3.80;;;;;;;19.80;63.51;98592.08;105403;1257;73819;-22
2023/07/24 05:28:30;;;;;;;8.80;4.00;;;;;;;19.81;63.40;98588.38;105530;1263;74259;-23
2023/07/24 05:31:04;;;;;;;6.20;3.80;;;;;;;19.95;63.38;98588.61;105518;1256;72562;-22
2023/07/24 05:33:31;;;;;;;7.10;3.90;;;;;;;20.05;62.96;98587.33;105289;1256;61155;-22
2023/07/24 05:36:02;;;;;;;7.70;3.80;;;;;;;20.15;62.70;98578.98;105627;1261;61176;-22
2023/07/24 05:38:29;;;;;;;13.60;4.20;;;;;;;20.35;62.91;98588.17;105545;1257;75510;-22
2023/07/24 05:41:00;;;;;;;3.30;2.30;;;;;;;20.49;62.08;98584.70;105608;1256;74899;-22
2023/07/24 05:43:27;;;;;;;4.40;3.10;;;;;;;20.38;61.80;98586.56;105280;1256;73168;-22
2023/07/24 05:45:55;;;;;;;7.60;4.10;;;;;;;20.39;61.72;98580.17;105459;1256;61078;-22
2023/07/24 05:48:22;;;;;;;8.00;3.80;;;;;;;20.49;61.79;98581.33;105552;1259;61202;-22
2023/07/24 05:50:49;;;;;;;7.80;4.20;;;;;;;20.56;61.77;98581.42;105261;1257;74254;-23
2023/07/24 05:53:16;;;;;;;4.60;3.60;;;;;;;20.64;61.98;98581.52;105249;1258;74320;-22
2023/07/24 05:55:43;;;;;;;5.30;3.70;;;;;;;20.72;61.38;98581.16;105518;1256;71520;-22
2023/07/24 05:58:10;;;;;;;6.20;3.60;;;;;;;20.85;61.37;98579.52;105282;1256;60982;-22
2023/07/24 06:00:37;;;;;;;5.40;3.70;;;;;;;21.03;61.49;98576.98;105317;1256;61057;-22
2023/07/24 06:03:04;;;;;;;6.90;3.50;;;;;;;21.28;61.34;98571.41;105467;1256;73658;-22
2023/07/24 06:05:34;;;;;;;5.80;3.10;;;;;;;21.38;60.05;98572.30;105198;1256;74458;-22
2023/07/24 06:08:01;;;;;;;9.80;3.70;;;;;;;21.50;59.93;98566.92;105488;1256;72641;-22
2023/07/24 06:10:28;;;;;;;5.50;3.70;;;;;;;21.57;58.63;98565.29;105549;1256;61159;-23
2023/07/24 06:12:55;;;;;;;4.00;3.10;;;;;;;21.71;59.06;98568.11;105460;1260;61327;-23
2023/07/24 06:15:22;;;;;;;4.40;3.20;;;;;;;21.79;58.22;98563.77;105588;1256;73807;-23
2023/07/24 06:17:49;;;;;;;8.00;3.30;;;;;;;21.79;58.20;98565.15;105587;1256;74700;-23
2023/07/24 06:20:20;;;;;;;8.40;3.40;;;;;;;21.91;57.76;98563.11;105524;1257;72655;-23
2023/07/24 06:22:47;;;;;;;5.50;3.10;;;;;;;21.92;56.74;98566.36;105464;1256;61039;-23
2023/07/24 06:25:14;;;;;;;4.90;2.90;;;;;;;22.03;56.15;98562.85;105290;1260;62102;-23
2023/07/24 06:27:42;;;;;;;7.70;3.50;;;;;;;22.19;57.12;98560.39;105458;1256;73675;-23
2023/07/24 06:30:09;;;;;;;6.20;3.30;;;;;;;22.33;56.61;98560.06;105565;1260;74584;-23
2023/07/24 06:32:43;;;;;;;6.50;3.20;;;;;;;22.47;57.02;98552.40;105577;1257;72653;-23
2023/07/24 06:35:10;;;;;;;3.90;3.10;;;;;;;22.68;56.49;98550.17;105618;1256;61167;-23
2023/07/24 06:37:37;;;;;;;8.50;3.20;;;;;;;22.95;55.76;98546.34;105573;1257;61155;-23
2023/07/24 06:40:07;;;;;;;9.00;3.30;;;;;;;22.97;54.31;98540.86;103586;1257;2756319;-23
2023/07/24 06:42:34;;;;;;;6.10;3.20;;;;;;;22.96;54.24;98546.79;105484;1260;73447;-23
2023/07/24 06:45:01;;;;;;;6.60;3.20;;;;;;;23.09;54.86;98545.89;105294;1256;72772;-23
2023/07/24 06:47:28;;;;;;;7.30;3.10;;;;;;;23.13;54.27;98546.55;105195;1261;61145;-23
2023/07/24 06:49:55;;;;;;;3.80;3.10;;;;;;;23.12;54.04;98541.57;105315;1256;61142;-23
2023/07/24 06:52:22;;;;;;;6.30;3.00;;;;;;;23.09;53.99;98542.50;105522;1256;73868;-26
2023/07/24 06:54:49;;;;;;;3.90;2.80;;;;;;;23.12;54.25;98541.79;105511;1260;74328;-23
2023/07/24 06:57:16;;;;;;;3.90;2.70;;;;;;;23.13;53.52;98537.36;105488;1256;72641;-23
2023/07/24 06:59:43;;;;;;;6.80;2.80;;;;;;;23.20;53.00;98538.23;105192;1260;61077;-23
2023/07/24 07:02:09;;;;;;;7.80;3.20;;;;;;;23.28;53.04;98539.48;105204;1260;61270;-23
2023/07/24 07:04:36;;;;;;;3.60;2.30;;;;;;;23.44;51.75;98530.85;105400;1256;73297;-22
2023/07/24 07:07:04;;;;;;;8.90;2.90;;;;;;;23.55;51.80;98530.80;105393;1256;74328;-22
2023/07/24 07:09:31;;;;;;;4.50;2.50;;;;;;;23.70;52.88;98537.54;105563;1256;72400;-22
2023/07/24 07:11:58;;;;;;;4.50;3.00;;;;;;;23.89;52.03;98536.17;105500;1256;61119;-23
2023/07/24 07:14:24;;;;;;;3.50;2.60;;;;;;;24.07;51.41;98534.52;105576;1260;61711;-22
2023/07/24 07:16:51;;;;;;;3.80;2.10;;;;;;;24.19;50.13;98532.89;105613;1257;73820;-23
2023/07/24 07:19:18;;;;;;;5.20;3.00;;;;;;;24.12;48.93;98525.89;105631;1258;74137;-22
2023/07/24 07:21:45;;;;;;;3.10;2.50;;;;;;;24.16;49.66;98521.29;105622;1256;73308;-22
2023/07/24 07:24:12;;;;;;;4.80;2.40;;;;;;;24.33;49.97;98520.84;105572;1260;61048;-22
2023/07/24 07:26:38;;;;;;;4.70;2.60;;;;;;;24.53;48.37;98513.23;105539;1257;61276;-23
2023/07/24 07:29:05;;;;;;;3.50;2.50;;;;;;;24.56;48.40;98510.63;105646;1256;74255;-22
2023/07/24 07:31:32;;;;;;;4.50;2.40;;;;;;;24.67;48.30;98509.90;105143;1256;74422;-22
2023/07/24 07:34:00;;;;;;;3.80;2.60;;;;;;;24.91;47.80;98507.42;105591;1256;72552;-22
2023/07/24 07:36:27;;;;;;;5.10;2.70;;;;;;;25.00;47.27;98509.98;105331;1256;61073;-22
2023/07/24 07:38:54;;;;;;;7.30;2.70;;;;;;;25.08;47.05;98509.30;105425;1260;61143;-22
2023/07/24 07:41:21;;;;;;;6.30;2.80;;;;;;;25.20;46.72;98504.52;105522;1256;74441;-23
2023/07/24 07:43:48;;;;;;;4.50;2.40;;;;;;;25.23;46.29;98505.52;105533;1260;74431;-22
2023/07/24 07:46:15;;;;;;;4.10;2.00;;;;;;;25.24;45.98;98500.44;105202;1256;72513;-22
2023/07/24 07:48:42;;;;;;;5.60;2.50;;;;;;;25.26;46.26;98501.29;105352;1256;61071;-22
2023/07/24 07:51:09;;;;;;;5.40;2.70;;;;;;;25.47;45.49;98498.48;105371;1261;61240;-22
2023/07/24 07:53:35;;;;;;;3.20;2.00;;;;;;;25.70;46.09;98497.70;105564;1256;73794;-22
2023/07/24 07:56:02;;;;;;;6.20;2.50;;;;;;;25.61;45.19;98497.60;105602;1256;74371;-23
2023/07/24 07:58:30;;;;;;;3.40;2.00;;;;;;;25.59;45.14;98500.48;105241;1257;71414;-23
2023/07/24 08:00:56;;;;;;;5.40;2.50;;;;;;;25.65;44.25;98499.41;105313;1260;61119;-23
2023/07/24 08:03:23;;;;;;;17.50;2.60;;;;;;;25.69;45.24;98503.55;105438;1260;61099;-22
2023/07/24 08:05:50;;;;;;;4.50;2.40;;;;;;;25.60;43.90;98497.67;105552;1255;73721;-23
2023/07/24 08:08:17;;;;;;;3.90;2.10;;;;;;;25.65;44.61;98490.79;105629;1260;74285;-23
2023/07/24 08:10:44;;;;;;;2.60;2.30;;;;;;;25.71;44.04;98492.02;105595;1256;72391;-23
2023/07/24 08:13:11;;;;;;;3.20;1.70;;;;;;;25.89;44.31;98498.16;105576;1256;61075;-22
2023/07/24 08:15:38;;;;;;;4.20;2.10;;;;;;;26.07;43.74;98492.96;105386;1256;61169;-22
2023/07/24 08:18:05;;;;;;;3.60;2.00;;;;;;;26.03;44.33;98493.93;105562;1256;73702;-23
2023/07/24 08:20:35;;;;;;;3.90;2.30;;;;;;;26.24;43.35;98490.09;105568;1261;74220;-23
2023/07/24 08:23:02;;;;;;;3.40;2.20;;;;;;;26.13;42.85;98486.76;105510;1256;71659;-23
2023/07/24 08:25:29;;;;;;;8.80;2.40;;;;;;;26.34;43.47;98487.33;105558;1261;61002;-23
2023/07/24 08:27:56;;;;;;;3.30;2.30;;;;;;;26.32;42.60;98486.91;105550;1258;61098;-22
2023/07/24 08:30:33;;;;;;;6.30;2.20;;;;;;;26.43;42.85;98492.21;105418;1256;73887;-23
2023/07/24 08:33:00;;;;;;;3.60;1.90;;;;;;;26.64;43.04;98486.66;105592;1257;74226;-23
2023/07/24 08:35:27;;;;;;;5.10;2.40;;;;;;;26.86;42.34;98490.30;105600;1256;71379;-23
2023/07/24 08:37:54;;;;;;;3.20;2.60;;;;;;;26.94;42.48;98490.10;105559;1256;61050;-23
2023/07/24 08:40:21;;;;;;;3.20;2.00;;;;;;;26.95;42.47;98485.94;105532;1258;61262;-22
2023/07/24 08:42:51;;;;;;;3.40;2.50;;;;;;;27.21;42.87;98484.61;105356;1256;74342;-23
2023/07/24 08:45:18;;;;;;;5.10;2.60;;;;;;;27.32;41.77;98478.88;105241;1257;74407;-23
2023/07/24 08:47:46;;;;;;;5.20;2.70;;;;;;;27.36;41.75;98481.33;105409;1261;72568;-22
2023/07/24 08:50:15;;;;;;;4.60;2.50;;;;;;;27.47;41.56;98485.41;105303;1256;61051;-23
2023/07/24 08:52:43;;;;;;;4.40;2.20;;;;;;;27.54;40.12;98477.59;105390;1257;61107;-23
2023/07/24 08:55:10;;;;;;;8.60;2.50;;;;;;;27.10;40.11;98480.22;105334;1256;73790;-23
2023/07/24 08:57:37;;;;;;;5.90;2.30;;;;;;;27.47;40.73;98478.14;105384;1256;74128;-23
2023/07/24 09:00:05;;;;;;;3.70;2.20;;;;;;;27.76;40.57;98473.23;105605;1262;72548;-23
2023/07/24 09:02:33;;;;;;;2.60;1.80;;;;;;;27.69;39.18;98473.05;105265;1256;62024;-23
2023/07/24 09:05:01;;;;;;;4.40;2.50;;;;;;;27.71;39.11;98468.52;105277;1256;60999;-22
2023/07/24 09:07:30;;;;;;;4.30;2.40;;;;;;;27.61;39.28;98467.79;105564;1256;72466;-23
2023/07/24 09:09:57;;;;;;;4.00;3.10;;;;;;;27.73;39.34;98467.00;105356;1262;74130;-22
2023/07/24 09:12:24;;;;;;;4.00;2.30;;;;;;;27.62;39.10;98462.02;105263;1256;72639;-23
2023/07/24 09:15:04;;;;;;;3.30;2.60;;;;;;;27.34;40.16;98459.38;105595;1256;61048;-22
2023/07/24 09:17:33;;;;;;;4.80;2.30;;;;;;;27.64;40.52;98449.16;105306;1256;61158;-23
2023/07/24 09:20:02;;;;;;;4.40;2.80;;;;;;;27.65;39.46;98447.94;105617;1257;73839;-23
2023/07/24 09:22:29;;;;;;;4.70;2.70;;;;;;;27.85;39.13;98444.80;105539;1256;74157;-23
2023/07/24 09:24:57;;;;;;;5.90;2.40;;;;;;;27.95;38.19;98443.30;105558;1256;72706;-23
2023/07/24 09:27:26;;;;;;;3.00;2.60;;;;;;;27.93;38.64;98442.73;105261;1262;61065;-23
2023/07/24 09:29:53;;;;;;;4.20;2.90;;;;;;;27.76;39.08;98441.89;105383;1256;61113;-23
2023/07/24 09:32:24;;;;;;;3.00;2.40;;;;;;;27.90;39.08;98437.72;105329;1257;73813;-23
2023/07/24 09:34:51;;;;;;;5.10;2.30;;;;;;;27.83;39.70;98436.87;105196;1256;74263;-24
2023/07/24 09:37:30;;;;;;;3.30;2.30;;;;;;;27.79;39.08;98431.33;105652;1256;72492;-23
2023/07/24 09:39:58;;;;;;;3.20;2.40;;;;;;;27.56;39.38;98442.75;105335;1257;61063;-24
2023/07/24 09:42:34;;;;;;;2.70;1.90;;;;;;;27.57;39.50;98440.89;105528;1262;61183;-23
2023/07/24 09:45:02;;;;;;;4.60;2.40;;;;;;;27.46;39.32;98439.42;105567;1256;73906;-23
2023/07/24 09:47:30;;;;;;;2.90;2.20;;;;;;;27.37;40.41;98433.55;105306;1264;74459;-22
2023/07/24 09:50:18;;;;;;;6.80;3.00;;;;;;;27.49;39.39;98429.52;105349;1256;72696;-23
2023/07/24 09:52:48;;;;;;;3.70;2.50;;;;;;;27.29;39.89;98430.09;105314;1259;61111;-22
2023/07/24 09:55:23;;;;;;;4.00;2.70;;;;;;;27.44;41.11;98427.05;105549;1262;61296;-22
2023/07/24 09:57:50;;;;;;;5.00;2.70;;;;;;;27.53;41.27;98426.79;105592;1257;72935;-22
2023/07/24 10:00:16;;;;;;;2.50;2.10;;;;;;;27.71;41.59;98428.91;105451;1257;74231;-22
2023/07/24 10:02:43;;;;;;;7.00;2.50;;;;;;;27.61;41.15;98430.09;105196;1257;72627;-22
2023/07/24 10:05:10;;;;;;;2.70;2.20;;;;;;;27.49;40.90;98429.52;105193;1256;61157;-22
2023/07/24 10:07:37;;;;;;;2.90;2.20;;;;;;;27.28;41.03;98426.92;105106;1263;61148;-22
2023/07/24 10:10:05;;;;;;;3.10;2.10;;;;;;;27.31;42.05;98427.40;105197;1256;73435;-21
2023/07/24 10:12:33;;;;;;;3.50;2.50;;;;;;;27.51;42.19;98427.36;105259;1256;74198;-21
2023/07/24 10:15:00;;;;;;;3.00;2.30;;;;;;;27.52;41.04;98424.42;105467;1259;73203;-21
2023/07/24 10:17:37;;;;;;;3.00;2.30;;;;;;;27.43;41.70;98417.98;105225;1256;61043;-22
2023/07/24 10:20:05;;;;;;;4.70;2.50;;;;;;;27.55;42.66;98420.77;105253;1262;61128;-21
2023/07/24 10:22:33;;;;;;;5.30;2.70;;;;;;;27.68;41.81;98415.61;105430;1256;73970;-21
2023/07/24 10:25:00;;;;;;;2.80;2.40;;;;;;;27.76;41.43;98411.46;105549;1262;74194;-21
2023/07/24 10:27:28;;;;;;;4.00;2.80;;;;;;;27.71;41.65;98410.12;105464;1256;72505;-21
2023/07/24 10:30:04;;;;;;;5.20;2.90;;;;;;;27.60;41.55;98408.02;105468;1262;61700;-21
2023/07/24 10:32:50;;;;;;;4.20;2.70;;;;;;;27.24;41.41;98406.89;105215;1262;61144;-21
2023/07/24 10:35:22;;;;;;;3.30;2.30;;;;;;;27.53;41.63;98407.98;105282;1257;73804;-21
2023/07/24 10:37:49;;;;;;;3.40;2.10;;;;;;;27.75;40.42;98400.70;105377;1256;74080;-22
2023/07/24 10:40:20;;;;;;;3.20;2.50;;;;;;;27.40;40.50;98402.58;105247;1257;72657;-23
2023/07/24 10:43:01;;;;;;;2.90;2.30;;;;;;;27.41;40.80;98397.78;105230;1259;61119;-24
2023/07/24 10:45:41;;;;;;;4.60;3.30;;;;;;;27.24;41.43;98395.95;105402;1257;61098;-24
2023/07/24 10:48:11;;;;;;;2.70;2.30;;;;;;;27.54;40.50;98393.38;105562;1256;73856;-24
2023/07/24 10:50:42;;;;;;;3.00;2.40;;;;;;;28.08;39.78;98392.14;105263;1256;74268;-23
2023/07/24 10:53:19;;;;;;;5.90;2.30;;;;;;;28.31;40.34;98388.04;105362;1256;72432;-24
2023/07/24 10:55:47;;;;;;;5.20;2.40;;;;;;;28.20;39.37;98390.30;105559;1256;61093;-23
2023/07/24 10:58:14;;;;;;;5.10;2.80;;;;;;;27.73;40.45;98385.86;105538;1256;61259;-23
2023/07/24 11:00:42;;;;;;;4.10;2.50;;;;;;;28.11;40.37;98388.84;105634;1256;73688;-23
2023/07/24 11:03:10;;;;;;;3.90;2.60;;;;;;;28.29;39.45;98388.91;105436;1256;74313;-24
2023/07/24 11:05:41;;;;;;;3.30;2.50;;;;;;;27.71;39.61;98389.30;105435;1256;72603;-23
2023/07/24 11:08:15;;;;;;;5.40;2.80;;;;;;;28.06;40.07;98383.63;105254;1263;61134;-23
2023/07/24 11:10:49;;;;;;;2.60;2.40;;;;;;;28.46;39.34;98382.71;105325;1258;61105;-23
2023/07/24 11:13:17;;;;;;;4.50;2.40;;;;;;;28.26;39.18;98381.58;105583;1256;73929;-23
2023/07/24 11:15:44;;;;;;;4.90;2.50;;;;;;;27.95;40.03;98372.94;105505;1256;74760;-23
2023/07/24 11:18:13;;;;;;;4.90;2.90;;;;;;;28.11;39.49;98375.48;105523;1259;72541;-23
2023/07/24 11:20:43;;;;;;;4.40;3.10;;;;;;;28.30;40.27;98372.66;105430;1256;61106;-23
2023/07/24 11:23:10;;;;;;;6.60;2.90;;;;;;;28.14;40.53;98371.75;105492;1262;61193;-23
2023/07/24 11:25:38;;;;;;;5.10;3.60;;;;;;;27.90;41.12;98372.89;105669;1253;73550;-23
2023/07/24 11:28:06;;;;;;;9.90;3.80;;;;;;;28.26;40.67;98373.13;105665;1258;75749;-23